createdAt,value
2024-02-02T00:00:26.720Z,22.42
2024-02-02T00:05:49.742Z,11.33
2024-02-02T00:11:16.165Z,11.60
2024-02-02T00:16:39.086Z,15.60
2024-02-02T00:22:02.000Z,18.00
2024-02-02T00:27:26.295Z,18.52
2024-02-02T00:32:49.538Z,11.60
2024-02-02T00:38:12.820Z,19.20
2024-02-02T00:43:38.271Z,12.40
2024-02-02T00:49:01.417Z,10.60
2024-02-02T00:54:24.536Z,12.95
2024-02-02T00:59:51.522Z,22.88
2024-02-02T01:05:15.205Z,15.55
2024-02-02T01:10:38.052Z,20.45
2024-02-02T01:16:02.251Z,12.65
2024-02-02T01:21:25.225Z,13.73
2024-02-02T01:26:48.242Z,14.32
2024-02-02T01:32:12.493Z,17.42
2024-02-02T01:37:35.712Z,12.88
2024-02-02T01:42:58.522Z,17.17
2024-02-02T01:48:22.950Z,21.83
2024-02-02T01:53:46.045Z,13.20
2024-02-02T01:59:09.348Z,17.35
2024-02-02T02:04:33.602Z,25.40
2024-02-02T02:09:56.839Z,15.63
2024-02-02T02:15:20.218Z,13.38
2024-02-02T02:20:46.117Z,15.85
2024-02-02T02:26:10.305Z,19.88
2024-02-02T02:31:33.621Z,12.80
2024-02-02T02:36:56.667Z,17.20
2024-02-02T02:42:21.357Z,22.33
2024-02-02T02:47:44.493Z,16.88
2024-02-02T02:53:07.992Z,19.73
2024-02-02T02:58:32.301Z,17.35
2024-02-02T03:03:55.314Z,9.23
2024-02-02T03:09:18.314Z,22.38
2024-02-02T03:14:42.487Z,19.65
2024-02-02T03:20:08.783Z,17.90
2024-02-02T03:25:31.743Z,19.23
2024-02-02T03:30:55.959Z,20.27
2024-02-02T03:36:18.849Z,18.27
2024-02-02T03:41:41.798Z,23.08
2024-02-02T03:47:06.314Z,26.00
2024-02-02T03:52:29.138Z,13.32
2024-02-02T03:57:52.319Z,16.38
2024-02-02T04:03:16.745Z,19.55
2024-02-02T04:08:41.118Z,18.52
2024-02-02T04:14:05.192Z,18.98
2024-02-02T04:19:29.508Z,19.90
2024-02-02T04:24:53.636Z,13.13
2024-02-02T04:30:18.296Z,19.88
2024-02-02T04:41:06.147Z,18.50
2024-02-02T04:46:29.151Z,22.15
2024-02-02T04:51:53.368Z,21.20
2024-02-02T04:57:16.478Z,23.42
2024-02-02T05:02:39.474Z,24.73
2024-02-02T05:08:03.737Z,22.17
2024-02-02T05:13:26.751Z,22.27
2024-02-02T05:18:51.856Z,27.40
2024-02-02T05:24:29.651Z,19.73
2024-02-02T05:30:01.767Z,23.90
2024-02-02T05:35:24.663Z,18.80
2024-02-02T05:40:50.091Z,24.85
2024-02-02T05:46:13.353Z,28.40
2024-02-02T05:51:36.585Z,21.23
2024-02-02T05:57:03.669Z,30.10
2024-02-02T06:02:26.692Z,25.13
2024-02-02T06:07:49.499Z,19.15
2024-02-02T06:13:13.748Z,23.05
2024-02-02T06:18:37.103Z,22.15
2024-02-02T06:24:00.301Z,22.23
2024-02-02T06:29:25.006Z,21.00
2024-02-02T06:34:51.992Z,22.98
2024-02-02T06:40:15.429Z,19.58
2024-02-02T06:45:39.680Z,18.17
2024-02-02T06:51:05.197Z,21.90
2024-02-02T06:56:39.257Z,18.80
2024-02-02T07:02:18.599Z,23.02
2024-02-02T07:07:42.581Z,22.92
2024-02-02T07:13:05.811Z,20.03
2024-02-02T07:18:37.765Z,23.55
2024-02-02T07:24:01.795Z,18.48
2024-02-02T07:29:39.716Z,15.83
2024-02-02T07:35:04.854Z,17.98
2024-02-02T07:41:02.695Z,16.45
2024-02-02T07:46:26.043Z,20.73
2024-02-02T07:51:50.259Z,18.92
2024-02-02T07:57:13.183Z,13.93
2024-02-02T08:02:36.004Z,19.65
2024-02-02T08:08:00.168Z,22.23
2024-02-02T08:13:23.620Z,21.83
2024-02-02T08:18:46.770Z,20.75
2024-02-02T08:24:11.768Z,18.17
2024-02-02T08:29:34.685Z,13.43
2024-02-02T08:34:57.530Z,13.85
2024-02-02T08:40:36.313Z,14.57
2024-02-02T08:46:08.754Z,13.43
2024-02-02T08:51:53.326Z,12.65
2024-02-02T08:57:34.069Z,12.27
2024-02-02T09:03:07.107Z,12.43
2024-02-02T09:08:36.201Z,16.48
2024-02-02T09:14:12.108Z,9.15
2024-02-02T09:19:42.559Z,10.38
2024-02-02T09:25:11.945Z,12.50
2024-02-02T09:30:36.167Z,9.15
2024-02-02T09:35:59.760Z,16.25
2024-02-02T09:41:54.121Z,9.95
2024-02-02T09:48:01.336Z,10.03
2024-02-02T09:53:46.074Z,14.05
2024-02-02T09:59:16.690Z,8.90
2024-02-02T10:04:53.255Z,10.95
2024-02-02T10:10:41.559Z,10.02
2024-02-02T10:16:20.417Z,10.85
2024-02-02T10:21:56.789Z,7.30
2024-02-02T10:27:34.172Z,7.45
2024-02-02T10:33:25.738Z,9.10
2024-02-02T10:39:02.480Z,9.15
2024-02-02T10:44:43.463Z,7.50
2024-02-02T10:50:22.179Z,9.48
2024-02-02T10:56:02.425Z,9.52
2024-02-02T11:01:34.845Z,7.60
2024-02-02T11:07:08.030Z,7.47
2024-02-02T11:12:43.328Z,8.40
2024-02-02T11:18:25.979Z,9.40
2024-02-02T11:24:00.072Z,7.53
2024-02-02T11:29:38.853Z,7.23
2024-02-02T11:35:08.625Z,8.07
2024-02-02T11:40:34.736Z,6.03
2024-02-02T11:46:02.376Z,6.00
2024-02-02T11:51:27.285Z,14.82
2024-02-02T11:56:53.237Z,11.55
2024-02-02T12:02:35.062Z,5.70
2024-02-02T12:08:05.087Z,8.68
2024-02-02T12:13:32.678Z,7.93
2024-02-02T12:18:57.707Z,8.15
2024-02-02T12:24:22.338Z,10.25
2024-02-02T12:29:45.783Z,6.45
2024-02-02T12:40:36.688Z,7.70
2024-02-02T12:46:00.123Z,5.45
2024-02-02T12:51:24.677Z,8.32
2024-02-02T12:56:47.880Z,4.03
2024-02-02T13:02:14.815Z,9.63
2024-02-02T13:07:39.402Z,6.53
2024-02-02T13:13:11.994Z,2.67
2024-02-02T13:18:37.999Z,6.63
2024-02-02T13:24:05.198Z,10.35
2024-02-02T13:29:28.550Z,6.25
2024-02-02T13:34:54.259Z,7.82
2024-02-02T13:40:18.534Z,6.75
2024-02-02T13:45:42.261Z,4.85
2024-02-02T13:51:06.404Z,6.60
2024-02-02T13:56:31.113Z,7.03
2024-02-02T14:01:54.306Z,5.68
2024-02-02T14:07:18.886Z,8.00
2024-02-02T14:18:07.274Z,5.80
2024-02-02T14:23:32.251Z,12.37
2024-02-02T14:29:01.228Z,11.27
2024-02-02T14:34:25.500Z,10.60
2024-02-02T14:39:49.805Z,6.47
2024-02-02T14:45:14.219Z,6.18
2024-02-02T14:50:37.171Z,7.57
2024-02-02T14:56:00.301Z,10.50
2024-02-02T15:01:29.255Z,9.80
2024-02-02T15:06:53.178Z,7.75
2024-02-02T15:12:16.139Z,9.27
2024-02-02T15:17:40.673Z,4.97
2024-02-02T15:23:03.715Z,5.13
2024-02-02T15:28:26.763Z,6.00
2024-02-02T15:33:51.131Z,6.82
2024-02-02T15:39:23.691Z,5.97
2024-02-02T15:44:54.495Z,7.00
2024-02-02T15:50:18.737Z,7.20
2024-02-02T15:55:41.831Z,5.07
2024-02-02T16:01:05.705Z,6.20
2024-02-02T16:06:30.343Z,7.33
2024-02-02T16:11:53.203Z,5.70
2024-02-02T16:17:16.144Z,9.77
2024-02-02T16:22:42.390Z,7.90
2024-02-02T16:28:05.891Z,8.60
2024-02-02T16:33:28.956Z,9.20
2024-02-02T16:38:53.318Z,12.43
2024-02-02T16:44:18.861Z,4.43
2024-02-02T16:49:44.505Z,8.82
2024-02-02T16:55:10.153Z,7.13
2024-02-02T17:00:33.287Z,4.95
2024-02-02T17:05:56.377Z,6.75
2024-02-02T17:11:21.844Z,8.15
2024-02-02T17:16:44.947Z,9.20
2024-02-02T17:22:07.823Z,11.00
2024-02-02T17:27:32.000Z,7.75
2024-02-02T17:32:57.117Z,4.63
2024-02-02T17:38:20.161Z,10.20
2024-02-02T17:43:46.257Z,7.32
2024-02-02T17:49:09.531Z,6.45
2024-02-02T17:54:35.173Z,8.02
2024-02-02T17:59:59.434Z,10.55
2024-02-02T18:05:22.539Z,7.20
2024-02-02T18:10:45.408Z,9.05
2024-02-02T18:16:11.968Z,8.05
2024-02-02T18:21:36.460Z,7.80
2024-02-02T18:26:59.436Z,12.20
2024-02-02T18:32:23.818Z,8.52
2024-02-02T18:37:48.676Z,7.38
2024-02-02T18:43:11.583Z,9.45
2024-02-02T18:48:40.137Z,8.27
2024-02-02T18:54:03.665Z,10.02
2024-02-02T18:59:26.680Z,6.78
2024-02-02T19:04:52.025Z,10.35
2024-02-02T19:10:16.701Z,9.00
2024-02-02T19:15:39.644Z,9.23
2024-02-02T19:21:04.061Z,8.43
2024-02-02T19:26:27.131Z,5.30
2024-02-02T19:31:50.033Z,10.18
2024-02-02T19:37:14.240Z,10.93
2024-02-02T19:42:37.175Z,7.57
2024-02-02T19:48:09.483Z,8.91
2024-02-02T19:53:33.723Z,9.23
2024-02-02T19:58:58.305Z,8.57
2024-02-02T20:04:21.489Z,8.48
2024-02-02T20:09:45.813Z,8.43
2024-02-02T20:15:09.372Z,9.10
2024-02-02T20:20:32.493Z,10.68
2024-02-02T20:25:56.944Z,6.28
2024-02-02T20:31:21.650Z,11.35
2024-02-02T20:36:44.768Z,11.32
2024-02-02T20:42:09.411Z,7.30
2024-02-02T20:47:32.381Z,6.28
2024-02-02T20:52:55.242Z,6.88
2024-02-02T20:58:19.405Z,9.00
2024-02-02T21:03:42.488Z,7.78
2024-02-02T21:09:05.812Z,6.60
2024-02-02T21:14:30.072Z,8.40
2024-02-02T21:19:53.212Z,14.07
2024-02-02T21:25:16.441Z,8.75
2024-02-02T21:30:41.830Z,10.23
2024-02-02T21:36:08.610Z,10.27
2024-02-02T21:41:32.951Z,8.63
2024-02-02T21:46:57.545Z,7.43
2024-02-02T21:52:20.472Z,6.68
2024-02-02T21:57:43.567Z,9.63
2024-02-02T22:03:07.979Z,6.30
2024-02-02T22:08:33.682Z,6.30
2024-02-02T22:13:58.112Z,11.05
2024-02-02T22:19:22.867Z,5.60
2024-02-02T22:24:46.062Z,10.90
2024-02-02T22:30:10.358Z,8.90
2024-02-02T22:35:34.703Z,7.07
2024-02-02T22:40:57.777Z,8.65
2024-02-02T22:46:20.710Z,12.70
2024-02-02T22:51:48.648Z,10.77
2024-02-02T22:57:11.790Z,12.27
2024-02-02T23:02:34.656Z,12.15
2024-02-02T23:07:58.863Z,11.13
2024-02-02T23:13:22.427Z,10.82
2024-02-02T23:18:45.951Z,13.65
2024-02-02T23:24:10.872Z,15.27
2024-02-02T23:29:33.971Z,9.25
2024-02-02T23:34:56.923Z,15.20
2024-02-02T23:40:21.160Z,12.38
2024-02-02T23:45:44.291Z,13.77
2024-02-02T23:51:07.437Z,15.70
2024-02-02T23:56:31.694Z,15.40
